Time;durP1;ratioP1;P1;durP2;ratioP2;P2;SDS_P1;SDS_P2;PMS_P1;PMS_P2;Temp;Humidity;BMP_temperature;BMP_pressure;BME280_temperature;BME280_humidity;BME280_pressure;Samples;Min_cycle;Max_cycle;Signal;HPM_P1;HPM_P2
2023/01/31 00:00:46;;;;;;;18.98;2.63;;;3.70;99.90;;;;;;5050727;28;20045;-53
2023/01/31 00:03:12;;;;;;;17.35;2.33;;;3.70;99.90;;;;;;5052441;28;20040;-50
2023/01/31 00:05:38;;;;;;;18.27;2.83;;;4.20;99.90;;;;;;5052120;28;20041;-51
2023/01/31 00:08:04;;;;;;;19.38;2.88;;;4.10;99.90;;;;;;5052026;28;20114;-53
2023/01/31 00:10:30;;;;;;;19.70;3.17;;;3.50;99.90;;;;;;5051927;28;20117;-52
2023/01/31 00:12:56;;;;;;;17.63;1.77;;;3.70;99.90;;;;;;5052016;28;20032;-52
2023/01/31 00:15:22;;;;;;;19.45;2.67;;;3.50;99.90;;;;;;5052020;28;20029;-52
2023/01/31 00:17:48;;;;;;;16.92;2.13;;;3.40;99.90;;;;;;5052296;28;20112;-49
2023/01/31 00:20:14;;;;;;;26.05;2.35;;;3.60;99.90;;;;;;5052128;28;20034;-51
2023/01/31 00:22:39;;;;;;;15.90;2.50;;;3.50;99.90;;;;;;5051745;28;20124;-51
2023/01/31 00:25:06;;;;;;;20.05;1.83;;;3.90;99.90;;;;;;5052106;28;20117;-53
2023/01/31 00:27:31;;;;;;;20.33;2.15;;;3.40;99.90;;;;;;5051996;28;20480;-51
2023/01/31 00:29:57;;;;;;;20.23;1.98;;;3.50;99.90;;;;;;5051960;28;20047;-51
2023/01/31 00:32:25;;;;;;;20.45;2.15;;;3.30;99.90;;;;;;5051917;28;20029;-55
2023/01/31 00:34:54;;;;;;;15.20;2.08;;;3.60;99.90;;;;;;5051548;28;20471;-52
2023/01/31 00:37:20;;;;;;;23.73;2.70;;;3.30;99.90;;;;;;5050153;28;20110;-52
2023/01/31 00:39:47;;;;;;;14.00;1.88;;;3.30;99.90;;;;;;5050103;28;20048;-54
2023/01/31 00:42:12;;;;;;;18.05;2.50;;;3.30;99.90;;;;;;5051839;28;20044;-51
2023/01/31 00:44:38;;;;;;;12.25;2.20;;;3.30;99.90;;;;;;5051525;28;20370;-52
2023/01/31 00:47:04;;;;;;;15.60;1.90;;;3.60;99.90;;;;;;5050281;28;20048;-50
2023/01/31 00:49:30;;;;;;;21.33;2.00;;;3.30;99.90;;;;;;5051031;28;20044;-54
2023/01/31 00:51:56;;;;;;;16.48;2.28;;;3.40;99.90;;;;;;5051406;28;20146;-50
2023/01/31 00:54:21;;;;;;;18.27;1.85;;;3.20;99.90;;;;;;5051213;28;20071;-52
2023/01/31 00:56:47;;;;;;;13.43;1.70;;;3.10;99.90;;;;;;5051472;28;20045;-51
2023/01/31 00:59:13;;;;;;;15.10;2.58;;;3.20;99.90;;;;;;5049441;28;20045;-49
2023/01/31 01:01:39;;;;;;;12.68;1.67;;;3.10;99.90;;;;;;5049755;28;20055;-53
2023/01/31 01:04:05;;;;;;;20.73;2.50;;;3.10;99.90;;;;;;5051182;28;20496;-51
2023/01/31 01:06:31;;;;;;;11.27;1.83;;;3.30;99.90;;;;;;5051053;28;20449;-51
2023/01/31 01:08:58;;;;;;;11.02;1.77;;;2.90;99.90;;;;;;5050988;28;20503;-50
2023/01/31 01:11:27;;;;;;;15.55;1.83;;;3.30;99.90;;;;;;5051204;28;20480;-50
2023/01/31 01:13:53;;;;;;;13.68;1.88;;;3.40;99.90;;;;;;5050874;28;20041;-55
2023/01/31 01:16:24;;;;;;;19.02;1.90;;;3.00;99.90;;;;;;5049975;28;20039;-51
2023/01/31 01:18:53;;;;;;;12.27;1.73;;;2.80;99.90;;;;;;5049234;28;20456;-50
2023/01/31 01:21:27;;;;;;;19.95;2.10;;;3.60;99.90;;;;;;5049948;28;20067;-50
2023/01/31 01:23:55;;;;;;;22.35;1.90;;;2.70;99.90;;;;;;5049680;28;20041;-52
2023/01/31 01:26:25;;;;;;;11.88;2.03;;;2.80;99.90;;;;;;5050395;28;20033;-53
2023/01/31 01:28:52;;;;;;;19.15;2.08;;;2.60;99.90;;;;;;5050350;28;20045;-50
2023/01/31 01:31:21;;;;;;;14.45;1.95;;;2.60;99.90;;;;;;5050707;28;20063;-52
2023/01/31 01:33:48;;;;;;;21.08;2.00;;;2.60;99.90;;;;;;5050664;28;20043;-50
2023/01/31 01:36:16;;;;;;;14.98;2.08;;;3.10;99.90;;;;;;5050913;28;20548;-51
2023/01/31 01:38:43;;;;;;;15.85;2.13;;;2.60;99.90;;;;;;5049462;28;20041;-54
2023/01/31 01:41:10;;;;;;;13.25;1.73;;;2.60;99.90;;;;;;5050361;28;20110;-49
2023/01/31 01:43:48;;;;;;;19.25;3.03;;;2.70;99.90;;;;;;5050757;28;20068;-52
2023/01/31 01:46:30;;;;;;;13.88;1.95;;;2.60;99.90;;;;;;5048870;28;20045;-49
2023/01/31 01:49:07;;;;;;;18.10;2.92;;;2.50;99.90;;;;;;5049890;28;20037;-53
2023/01/31 01:51:33;;;;;;;11.55;1.77;;;2.50;99.90;;;;;;5050451;28;20116;-51
2023/01/31 01:54:07;;;;;;;16.45;2.03;;;2.40;99.90;;;;;;5050336;28;20531;-53
2023/01/31 01:56:37;;;;;;;13.85;1.92;;;2.40;99.90;;;;;;5050191;28;20037;-51
2023/01/31 01:59:49;;;;;;;18.52;1.92;;;2.20;99.90;;;;;;5050486;28;20106;-53
2023/01/31 02:02:15;;;;;;;16.63;1.95;;;2.30;99.90;;;;;;5047581;28;20045;-52
2023/01/31 02:04:46;;;;;;;17.80;2.33;;;2.30;99.90;;;;;;5050324;28;20037;-52
2023/01/31 02:07:12;;;;;;;14.32;1.88;;;2.30;99.90;;;;;;5050084;28;20099;-50
2023/01/31 02:10:04;;;;;;;17.80;2.28;;;2.20;99.90;;;;;;5047695;28;20518;-50
2023/01/31 02:12:31;;;;;;;16.98;2.15;;;2.30;99.90;;;;;;5047101;28;20083;-51
2023/01/31 02:14:57;;;;;;;12.68;2.22;;;2.50;99.90;;;;;;5049118;28;20083;-50
2023/01/31 02:17:23;;;;;;;12.82;1.98;;;2.30;99.90;;;;;;5048800;28;20388;-53
2023/01/31 02:20:16;;;;;;;13.45;2.25;;;2.40;99.90;;;;;;5049599;28;20472;-52
2023/01/31 02:23:13;;;;;;;18.58;1.85;;;2.30;99.90;;;;;;5050087;28;20033;-52
2023/01/31 02:26:15;;;;;;;20.35;2.38;;;2.30;99.90;;;;;;5026129;28;20136;-50
2023/01/31 02:29:00;;;;;;;21.48;2.50;;;2.60;99.90;;;;;;5044803;28;20408;-52
2023/01/31 02:31:38;;;;;;;17.05;2.00;;;2.70;99.90;;;;;;5049517;28;20116;-53
2023/01/31 02:34:32;;;;;;;11.85;1.65;;;2.50;99.90;;;;;;5051761;28;20052;-54
2023/01/31 02:37:21;;;;;;;19.98;1.95;;;2.90;99.90;;;;;;5069393;28;20041;-50
2023/01/31 02:40:14;;;;;;;17.40;2.05;;;3.10;99.90;;;;;;5054017;28;20040;-50
2023/01/31 02:43:05;;;;;;;17.55;2.10;;;2.90;99.90;;;;;;5054033;28;20045;-52
2023/01/31 02:45:36;;;;;;;18.98;2.58;;;3.00;99.90;;;;;;5053367;28;20480;-53
2023/01/31 02:48:12;;;;;;;16.08;1.83;;;3.10;99.90;;;;;;5053147;28;20041;-52
2023/01/31 02:50:37;;;;;;;23.85;2.63;;;3.00;99.90;;;;;;5053921;28;20415;-50
2023/01/31 02:53:21;;;;;;;14.88;1.95;;;3.20;99.90;;;;;;5053355;28;20037;-50
2023/01/31 02:56:16;;;;;;;16.92;2.28;;;3.20;99.90;;;;;;5053271;28;20044;-54
2023/01/31 02:59:03;;;;;;;11.35;2.05;;;3.10;99.90;;;;;;5053723;28;20041;-51
2023/01/31 03:01:43;;;;;;;13.05;2.13;;;3.10;99.90;;;;;;5052869;28;20045;-53
2023/01/31 03:04:12;;;;;;;19.85;2.50;;;3.90;99.90;;;;;;5053614;28;20044;-53
2023/01/31 03:06:53;;;;;;;15.65;2.13;;;3.20;99.90;;;;;;5053470;28;20044;-53
2023/01/31 03:09:28;;;;;;;18.85;2.58;;;3.00;99.90;;;;;;5053523;28;20033;-48
2023/01/31 03:12:26;;;;;;;17.88;3.05;;;2.90;99.90;;;;;;5053099;28;20049;-55
2023/01/31 03:15:07;;;;;;;15.48;2.15;;;3.20;99.90;;;;;;5053416;28;20114;-52
2023/01/31 03:17:59;;;;;;;21.38;2.65;;;2.90;99.90;;;;;;5053315;28;20041;-50
2023/01/31 03:20:43;;;;;;;18.45;2.83;;;2.90;99.90;;;;;;5053733;28;20493;-55
2023/01/31 03:23:28;;;;;;;23.48;2.25;;;3.20;99.90;;;;;;5053464;28;20101;-49
2023/01/31 03:25:57;;;;;;;14.88;2.47;;;3.20;99.90;;;;;;5052673;28;20033;-50
2023/01/31 03:28:28;;;;;;;15.52;2.17;;;3.10;99.90;;;;;;5053095;28;20500;-51
2023/01/31 03:30:57;;;;;;;15.80;2.10;;;3.00;99.90;;;;;;5053199;28;20537;-50
2023/01/31 03:33:31;;;;;;;16.40;3.22;;;3.30;99.90;;;;;;5053491;28;20033;-50
2023/01/31 03:36:06;;;;;;;21.92;2.38;;;3.00;99.90;;;;;;5053343;28;20463;-49
2023/01/31 03:38:35;;;;;;;15.13;2.22;;;3.30;99.90;;;;;;5052976;28;20041;-52
2023/01/31 03:41:20;;;;;;;19.52;2.30;;;3.10;99.90;;;;;;5052852;28;20484;-52
2023/01/31 03:44:05;;;;;;;23.63;2.60;;;3.20;99.90;;;;;;5052371;28;20037;-50
2023/01/31 03:46:37;;;;;;;15.63;2.85;;;3.30;99.90;;;;;;5051621;28;20040;-52
2023/01/31 03:49:07;;;;;;;17.42;2.13;;;3.50;99.90;;;;;;5052315;28;20037;-48
2023/01/31 03:51:35;;;;;;;19.85;2.50;;;4.30;99.90;;;;;;5052295;28;20503;-53
2023/01/31 03:54:05;;;;;;;23.15;3.00;;;3.50;99.90;;;;;;5052814;28;20041;-51
2023/01/31 03:56:36;;;;;;;23.65;2.90;;;3.90;99.90;;;;;;5052369;28;20045;-50
2023/01/31 03:59:13;;;;;;;25.13;3.28;;;4.00;99.90;;;;;;5053069;28;20045;-52
2023/01/31 04:01:44;;;;;;;18.55;3.30;;;3.90;99.90;;;;;;5053017;28;20198;-50
2023/01/31 04:04:16;;;;;;;24.70;3.63;;;3.80;99.90;;;;;;5052016;28;20045;-49
2023/01/31 04:06:42;;;;;;;17.60;2.60;;;4.10;99.90;;;;;;5052277;28;20627;-49
2023/01/31 04:09:08;;;;;;;18.70;3.67;;;3.90;99.90;;;;;;5052382;28;20033;-53
2023/01/31 04:11:39;;;;;;;27.25;3.78;;;4.50;99.90;;;;;;5051076;28;20041;-52
2023/01/31 04:14:05;;;;;;;16.63;2.95;;;3.90;99.90;;;;;;5052173;28;20087;-51
2023/01/31 04:16:31;;;;;;;17.85;2.83;;;4.60;99.90;;;;;;5052455;28;20388;-50
2023/01/31 04:18:56;;;;;;;25.42;3.92;;;3.90;99.90;;;;;;5051641;28;20033;-47
2023/01/31 04:21:22;;;;;;;23.38;3.75;;;4.20;99.90;;;;;;5052032;28;20434;-48
2023/01/31 04:23:48;;;;;;;22.08;4.25;;;3.90;99.90;;;;;;5051913;28;20041;-50
2023/01/31 04:26:14;;;;;;;31.27;3.28;;;4.70;99.90;;;;;;5052108;28;20060;-52
2023/01/31 04:28:40;;;;;;;24.30;3.67;;;4.40;99.90;;;;;;5052041;28;20033;-52
2023/01/31 04:31:06;;;;;;;26.35;3.75;;;4.30;99.90;;;;;;5051574;28;20048;-53
2023/01/31 04:33:32;;;;;;;29.90;4.18;;;4.20;99.90;;;;;;5051102;28;20083;-48
2023/01/31 04:35:58;;;;;;;18.00;3.30;;;4.60;99.90;;;;;;5051986;28;20085;-52
2023/01/31 04:38:23;;;;;;;19.73;4.07;;;4.20;99.90;;;;;;5051688;28;20052;-51
2023/01/31 04:40:49;;;;;;;22.65;4.28;;;3.90;99.90;;;;;;5050411;28;20036;-51
2023/01/31 04:43:15;;;;;;;17.00;3.35;;;4.40;99.90;;;;;;5050431;28;20103;-47
2023/01/31 04:45:41;;;;;;;22.75;4.15;;;4.00;99.90;;;;;;5051717;28;20504;-49
2023/01/31 04:48:07;;;;;;;22.45;3.40;;;4.00;99.90;;;;;;5051294;28;20045;-50
2023/01/31 04:50:33;;;;;;;25.83;4.40;;;4.20;99.90;;;;;;5051373;28;20040;-51
2023/01/31 04:52:59;;;;;;;27.05;3.80;;;4.30;99.90;;;;;;5049863;28;20037;-50
2023/01/31 04:55:26;;;;;;;26.85;4.65;;;4.20;99.90;;;;;;5050837;28;20037;-51
2023/01/31 04:57:52;;;;;;;25.73;4.20;;;4.10;99.90;;;;;;5049992;28;20052;-51
2023/01/31 05:00:18;;;;;;;19.70;4.80;;;4.30;99.90;;;;;;5051920;28;20089;-52
2023/01/31 05:02:44;;;;;;;25.27;4.80;;;4.30;99.90;;;;;;5051585;28;20045;-49
2023/01/31 05:05:11;;;;;;;26.60;4.85;;;4.20;99.90;;;;;;5051311;28;20044;-49
2023/01/31 05:07:38;;;;;;;31.27;5.05;;;3.90;99.90;;;;;;5051020;28;20049;-49
2023/01/31 05:10:04;;;;;;;28.10;5.18;;;4.10;99.90;;;;;;5051300;28;20048;-50
2023/01/31 05:12:30;;;;;;;25.58;4.95;;;3.90;99.90;;;;;;5051578;28;20577;-49
2023/01/31 05:14:56;;;;;;;25.33;5.60;;;4.30;99.90;;;;;;5050049;28;20499;-48
2023/01/31 05:17:24;;;;;;;27.08;5.82;;;4.50;99.90;;;;;;5049579;28;20065;-52
2023/01/31 05:19:50;;;;;;;25.80;5.57;;;4.10;99.90;;;;;;5050488;28;20036;-51
2023/01/31 05:22:16;;;;;;;25.30;4.47;;;3.90;99.90;;;;;;5050647;28;20120;-52
2023/01/31 05:24:42;;;;;;;32.17;5.55;;;4.80;99.90;;;;;;5050948;28;20037;-52
2023/01/31 05:27:09;;;;;;;31.00;6.07;;;3.80;99.90;;;;;;5051568;28;20037;-50
2023/01/31 05:29:34;;;;;;;31.25;6.05;;;4.20;99.90;;;;;;5051518;28;20381;-51
2023/01/31 05:32:01;;;;;;;31.48;6.30;;;4.30;99.90;;;;;;5050705;28;20047;-49
2023/01/31 05:34:29;;;;;;;31.00;6.13;;;4.30;99.90;;;;;;5050073;28;20091;-53
2023/01/31 05:36:55;;;;;;;28.48;5.97;;;3.90;99.90;;;;;;5050713;28;20040;-48
2023/01/31 05:39:21;;;;;;;27.98;6.15;;;4.20;99.90;;;;;;5050494;28;20052;-51
2023/01/31 05:41:47;;;;;;;39.08;7.57;;;4.00;99.90;;;;;;5050477;28;20076;-49
2023/01/31 05:44:13;;;;;;;32.08;6.38;;;4.50;99.90;;;;;;5050643;28;20417;-49
2023/01/31 05:46:39;;;;;;;35.35;7.68;;;4.10;99.90;;;;;;5049341;28;20048;-50
2023/01/31 05:49:05;;;;;;;35.05;7.18;;;4.70;99.90;;;;;;5048635;28;20059;-50
2023/01/31 05:51:31;;;;;;;37.97;8.18;;;4.20;99.90;;;;;;5049563;28;20033;-50
2023/01/31 05:53:57;;;;;;;33.40;7.95;;;4.40;99.90;;;;;;5050458;28;20072;-49
2023/01/31 05:56:23;;;;;;;36.50;7.47;;;4.70;99.90;;;;;;5050155;28;20095;-50
2023/01/31 05:58:49;;;;;;;33.40;7.13;;;4.80;99.90;;;;;;5050100;28;20124;-51
2023/01/31 06:01:26;;;;;;;31.75;7.82;;;4.60;99.90;;;;;;5050466;28;20049;-51
2023/01/31 06:03:52;;;;;;;29.95;7.40;;;4.40;99.90;;;;;;5050016;28;20040;-52
2023/01/31 06:06:18;;;;;;;34.25;8.93;;;4.30;99.90;;;;;;5049523;28;20045;-47
2023/01/31 06:08:44;;;;;;;41.50;8.88;;;4.50;99.90;;;;;;5049350;28;20033;-51
2023/01/31 06:11:11;;;;;;;29.95;7.75;;;4.60;99.90;;;;;;5048546;28;20045;-51
2023/01/31 06:13:38;;;;;;;32.90;7.50;;;4.50;99.90;;;;;;5048889;28;20381;-48
2023/01/31 06:16:04;;;;;;;32.95;8.45;;;4.90;99.90;;;;;;5050183;28;20426;-49
2023/01/31 06:18:30;;;;;;;25.58;6.95;;;4.40;99.90;;;;;;5048587;28;20044;-51
2023/01/31 06:20:56;;;;;;;36.08;8.13;;;5.00;99.90;;;;;;5049746;28;20041;-52
2023/01/31 06:23:22;;;;;;;41.72;8.57;;;4.60;99.90;;;;;;5050014;28;20440;-52
2023/01/31 06:25:49;;;;;;;28.15;6.50;;;4.40;99.90;;;;;;5049762;28;20040;-54
2023/01/31 06:28:15;;;;;;;35.55;7.90;;;4.50;99.90;;;;;;5050020;28;20508;-54
2023/01/31 06:30:40;;;;;;;39.45;7.45;;;5.50;99.90;;;;;;5050012;28;20041;-54
2023/01/31 06:33:06;;;;;;;31.00;8.00;;;5.20;99.90;;;;;;5049846;28;20040;-48
2023/01/31 06:35:32;;;;;;;34.83;7.72;;;4.90;99.90;;;;;;5048234;28;20056;-51
2023/01/31 06:37:58;;;;;;;30.48;7.18;;;4.90;99.90;;;;;;5049649;28;20126;-53
2023/01/31 06:40:24;;;;;;;27.48;6.90;;;4.90;99.90;;;;;;5049873;28;20192;-48
2023/01/31 06:42:50;;;;;;;26.17;5.95;;;5.10;99.90;;;;;;5049738;28;20048;-50
2023/01/31 06:45:16;;;;;;;33.85;8.43;;;5.00;99.90;;;;;;5049568;28;20094;-49
2023/01/31 06:47:44;;;;;;;29.75;7.43;;;5.20;99.90;;;;;;5049299;28;20104;-50
2023/01/31 06:50:10;;;;;;;28.98;6.95;;;5.30;99.90;;;;;;5049324;28;20045;-53
2023/01/31 06:52:36;;;;;;;27.90;6.10;;;4.70;99.90;;;;;;5049793;28;20037;-52
2023/01/31 06:55:02;;;;;;;35.17;7.68;;;5.20;99.90;;;;;;5048503;28;20538;-52
2023/01/31 06:57:28;;;;;;;31.02;6.88;;;5.00;99.90;;;;;;5049337;28;20049;-50
2023/01/31 06:59:54;;;;;;;24.33;5.88;;;5.30;99.90;;;;;;5048357;28;20045;-49
2023/01/31 07:02:19;;;;;;;31.35;5.78;;;5.10;99.90;;;;;;5049618;28;20060;-49
2023/01/31 07:04:45;;;;;;;31.52;6.57;;;5.40;99.90;;;;;;5049481;28;21253;-50
2023/01/31 07:07:11;;;;;;;29.33;6.25;;;5.20;99.90;;;;;;5049621;28;20048;-51
2023/01/31 07:09:36;;;;;;;27.27;5.72;;;5.60;99.90;;;;;;5049707;28;20080;-51
2023/01/31 07:12:03;;;;;;;27.50;5.88;;;5.30;99.90;;;;;;5048237;28;20029;-52
2023/01/31 07:14:28;;;;;;;31.25;5.93;;;5.40;99.90;;;;;;5049574;28;20488;-50
2023/01/31 07:16:54;;;;;;;27.65;6.07;;;5.00;99.90;;;;;;5048904;28;20110;-53
2023/01/31 07:19:20;;;;;;;21.88;5.47;;;5.40;99.90;;;;;;5050309;28;20028;-54
2023/01/31 07:21:47;;;;;;;25.88;4.68;;;5.40;99.90;;;;;;5053378;28;20044;-50
2023/01/31 07:24:14;;;;;;;28.67;5.35;;;5.40;99.90;;;;;;5052968;28;20036;-52
2023/01/31 07:26:40;;;;;;;29.13;5.35;;;5.40;99.90;;;;;;5052937;28;20037;-52
2023/01/31 07:29:05;;;;;;;34.33;8.35;;;5.20;99.90;;;;;;5053193;28;20051;-49
2023/01/31 07:31:31;;;;;;;31.92;5.72;;;5.30;99.90;;;;;;5054151;28;20052;-53
2023/01/31 07:33:58;;;;;;;33.20;5.63;;;5.20;99.90;;;;;;5052122;28;20025;-51
2023/01/31 07:36:25;;;;;;;25.92;5.03;;;5.20;99.90;;;;;;5049337;28;20047;-51
2023/01/31 07:38:57;;;;;;;26.10;4.72;;;5.20;99.90;;;;;;5051765;28;20037;-50
2023/01/31 07:41:24;;;;;;;24.48;5.53;;;5.10;99.90;;;;;;5049546;28;20868;-52
2023/01/31 07:43:50;;;;;;;18.40;4.75;;;5.30;99.90;;;;;;5052567;28;20045;-51
2023/01/31 07:46:16;;;;;;;27.00;5.00;;;5.40;99.90;;;;;;5045363;28;20670;-53
2023/01/31 07:48:42;;;;;;;30.23;5.57;;;5.20;99.90;;;;;;5041520;28;20047;-51
2023/01/31 07:51:08;;;;;;;24.48;5.65;;;5.10;99.90;;;;;;5043570;28;20084;-51
2023/01/31 07:53:40;;;;;;;24.80;4.72;;;5.70;99.90;;;;;;5044147;28;20084;-51
2023/01/31 07:56:14;;;;;;;28.85;5.80;;;5.50;99.90;;;;;;5044114;28;20043;-52
2023/01/31 07:58:42;;;;;;;34.38;8.07;;;5.30;99.90;;;;;;5043956;28;20052;-52
2023/01/31 08:03:58;;;;;;;38.30;6.65;;;5.30;99.90;;;;;;5046257;28;20484;-50
2023/01/31 08:06:23;;;;;;;28.15;4.47;;;5.40;99.90;;;;;;5049995;28;20037;-49
2023/01/31 08:08:49;;;;;;;31.83;6.28;;;6.10;99.90;;;;;;5049280;28;20039;-49
2023/01/31 08:11:15;;;;;;;33.92;7.85;;;5.40;99.90;;;;;;5049694;28;20083;-52
2023/01/31 08:13:40;;;;;;;30.52;5.45;;;5.50;99.90;;;;;;5051957;28;20096;-53
2023/01/31 08:16:08;;;;;;;25.70;4.95;;;5.40;99.90;;;;;;5051884;28;20059;-49
2023/01/31 08:18:34;;;;;;;30.10;5.07;;;5.40;99.90;;;;;;5051785;28;20127;-51
2023/01/31 08:21:00;;;;;;;20.73;4.60;;;5.40;99.90;;;;;;5052099;28;20040;-51
2023/01/31 08:23:27;;;;;;;22.35;4.57;;;5.60;99.90;;;;;;5051936;28;20102;-52
2023/01/31 08:26:03;;;;;;;18.52;3.72;;;5.70;99.90;;;;;;5051763;28;20049;-52
2023/01/31 08:28:29;;;;;;;20.35;4.15;;;5.70;99.90;;;;;;5052173;28;20435;-52
2023/01/31 08:30:55;;;;;;;21.55;4.13;;;5.40;99.90;;;;;;5050501;28;20029;-50
2023/01/31 08:33:21;;;;;;;24.38;4.45;;;5.40;99.90;;;;;;5052007;28;20043;-51
2023/01/31 08:35:46;;;;;;;20.50;4.75;;;5.70;99.90;;;;;;5051474;28;20044;-50
2023/01/31 08:38:12;;;;;;;35.72;5.82;;;5.70;99.90;;;;;;5050085;28;20377;-51
2023/01/31 08:40:38;;;;;;;19.00;4.45;;;5.40;99.90;;;;;;5050351;28;20057;-51
2023/01/31 08:43:03;;;;;;;25.50;4.47;;;5.70;99.90;;;;;;5050391;28;20086;-50
2023/01/31 08:45:30;;;;;;;19.05;4.30;;;5.50;99.90;;;;;;5051695;28;20036;-50
2023/01/31 08:47:58;;;;;;;20.70;4.20;;;5.90;99.90;;;;;;5051481;28;20041;-50
2023/01/31 08:50:26;;;;;;;21.48;4.10;;;5.90;99.90;;;;;;5050848;28;20068;-52
2023/01/31 08:52:56;;;;;;;23.65;3.95;;;5.70;99.90;;;;;;5050601;28;20116;-51
2023/01/31 08:55:23;;;;;;;23.42;4.32;;;5.80;99.90;;;;;;5049928;28;20030;-52
2023/01/31 08:57:50;;;;;;;22.23;3.70;;;5.60;99.90;;;;;;5048255;28;20053;-50
2023/01/31 09:00:16;;;;;;;21.88;4.30;;;5.60;99.90;;;;;;5049178;28;20512;-50
2023/01/31 09:02:42;;;;;;;25.33;4.47;;;5.90;99.90;;;;;;5049183;28;20477;-52
2023/01/31 09:05:08;;;;;;;30.50;6.70;;;5.80;99.90;;;;;;5050911;28;20036;-52
2023/01/31 09:07:34;;;;;;;27.83;5.70;;;5.80;99.90;;;;;;5049262;28;20045;-53
2023/01/31 09:10:00;;;;;;;28.40;5.63;;;5.80;99.90;;;;;;5050442;28;20116;-51
2023/01/31 09:12:26;;;;;;;25.17;5.63;;;5.90;99.90;;;;;;5050068;28;20040;-50
2023/01/31 09:14:51;;;;;;;19.30;4.25;;;6.00;99.90;;;;;;5050028;28;20444;-51
2023/01/31 09:17:18;;;;;;;20.10;3.50;;;6.20;99.90;;;;;;5047944;28;20045;-51
2023/01/31 09:19:43;;;;;;;22.38;3.83;;;5.80;99.90;;;;;;5047410;28;20381;-50
2023/01/31 09:22:09;;;;;;;19.63;3.20;;;6.00;99.90;;;;;;5047294;28;20048;-49
2023/01/31 09:24:35;;;;;;;17.80;3.30;;;6.00;99.90;;;;;;5047106;28;20047;-51
2023/01/31 09:27:04;;;;;;;20.65;3.50;;;6.30;99.90;;;;;;5046466;28;20091;-48
2023/01/31 09:29:29;;;;;;;16.45;3.03;;;6.20;99.90;;;;;;5044481;28;20080;-51
2023/01/31 09:31:55;;;;;;;22.77;3.83;;;6.30;99.90;;;;;;5042473;28;20075;-53
2023/01/31 09:34:21;;;;;;;24.70;3.85;;;6.30;99.90;;;;;;5041650;28;20057;-53
2023/01/31 09:36:47;;;;;;;19.55;3.15;;;6.10;99.90;;;;;;5041796;28;20049;-49
2023/01/31 09:39:13;;;;;;;19.70;2.92;;;6.70;99.90;;;;;;5041098;28;20503;-52
2023/01/31 09:41:44;;;;;;;20.20;3.72;;;6.30;99.90;;;;;;5041421;28;20064;-49
2023/01/31 09:44:19;;;;;;;19.88;3.67;;;6.50;99.90;;;;;;5041216;28;20032;-47
2023/01/31 09:47:13;;;;;;;16.85;3.10;;;6.60;99.90;;;;;;5041254;28;20373;-51
2023/01/31 09:50:09;;;;;;;19.50;3.75;;;6.50;99.90;;;;;;5037056;28;20131;-52
2023/01/31 09:52:37;;;;;;;21.00;3.72;;;7.70;99.90;;;;;;5039322;28;20504;-52
2023/01/31 09:55:04;;;;;;;23.60;3.40;;;6.60;99.90;;;;;;5040466;28;20041;-50
2023/01/31 09:57:44;;;;;;;20.08;3.60;;;6.70;99.90;;;;;;5037423;28;20098;-51
2023/01/31 10:00:45;;;;;;;23.55;4.00;;;6.60;99.90;;;;;;5045034;28;20106;-49
2023/01/31 10:03:45;;;;;;;22.02;3.75;;;6.60;99.90;;;;;;5047290;28;20043;-48
2023/01/31 10:06:11;;;;;;;18.65;3.90;;;6.80;99.90;;;;;;5045654;28;20037;-48
2023/01/31 10:08:58;;;;;;;17.02;3.45;;;6.60;99.90;;;;;;5048378;28;20453;-52
2023/01/31 10:11:28;;;;;;;27.08;3.75;;;6.80;99.90;;;;;;5049068;28;20055;-51
2023/01/31 10:14:17;;;;;;;23.45;3.42;;;6.70;99.90;;;;;;5048609;28;20048;-48
2023/01/31 10:16:59;;;;;;;19.02;4.15;;;6.70;99.90;;;;;;5046005;28;20029;-51
2023/01/31 10:19:31;;;;;;;19.45;3.67;;;6.80;99.90;;;;;;5049147;28;20485;-50
2023/01/31 10:22:07;;;;;;;21.15;4.18;;;6.80;99.90;;;;;;5049492;28;20095;-53
2023/01/31 10:24:36;;;;;;;28.20;4.50;;;6.80;99.90;;;;;;5049702;28;20090;-52
2023/01/31 10:27:26;;;;;;;20.67;4.40;;;6.80;99.90;;;;;;5049445;28;20045;-52
2023/01/31 10:29:56;;;;;;;20.83;4.43;;;6.80;99.90;;;;;;5049328;28;20033;-53
2023/01/31 10:32:41;;;;;;;21.20;3.42;;;7.00;99.90;;;;;;5049486;28;20036;-52
2023/01/31 10:35:29;;;;;;;20.98;3.97;;;7.00;99.90;;;;;;5044943;28;20567;-48
2023/01/31 10:37:59;;;;;;;23.27;3.60;;;7.00;99.90;;;;;;5048504;28;20056;-50
2023/01/31 10:40:34;;;;;;;19.35;3.45;;;6.90;99.90;;;;;;5047615;28;20041;-49
2023/01/31 10:43:16;;;;;;;18.27;3.40;;;6.90;99.90;;;;;;5048366;28;20048;-51
2023/01/31 10:45:41;;;;;;;17.90;3.47;;;6.80;99.90;;;;;;5048282;28;20040;-53
2023/01/31 10:48:20;;;;;;;20.63;3.67;;;6.90;99.90;;;;;;5047746;28;20051;-51
2023/01/31 10:50:58;;;;;;;27.98;4.40;;;6.90;99.90;;;;;;5048354;28;20048;-50
2023/01/31 10:53:37;;;;;;;22.65;4.72;;;7.00;99.90;;;;;;5048839;28;20056;-52
2023/01/31 10:56:32;;;;;;;18.15;4.47;;;6.90;99.90;;;;;;5052088;28;20039;-50
2023/01/31 10:59:01;;;;;;;24.60;4.40;;;6.80;99.90;;;;;;5052942;28;20490;-52
2023/01/31 11:01:27;;;;;;;20.83;4.07;;;7.00;99.90;;;;;;5051845;28;20033;-52
2023/01/31 11:03:56;;;;;;;22.83;3.95;;;7.00;99.90;;;;;;5051928;28;20033;-54
2023/01/31 11:06:23;;;;;;;19.15;4.20;;;6.90;99.90;;;;;;5051989;28;20041;-53
2023/01/31 11:08:56;;;;;;;18.08;4.20;;;6.90;99.90;;;;;;5053353;28;20080;-51
2023/01/31 11:11:23;;;;;;;26.48;3.95;;;7.10;99.90;;;;;;5050736;28;20077;-52
2023/01/31 11:14:06;;;;;;;20.42;3.72;;;7.00;99.90;;;;;;5052950;28;20072;-49
2023/01/31 11:16:39;;;;;;;27.58;4.32;;;7.00;99.90;;;;;;5052467;28;20124;-50
2023/01/31 11:19:22;;;;;;;17.95;3.55;;;6.90;99.90;;;;;;5051411;28;20135;-51
2023/01/31 11:21:51;;;;;;;24.20;5.20;;;7.00;99.90;;;;;;5051091;28;20048;-50
2023/01/31 11:24:20;;;;;;;26.10;5.57;;;7.10;99.90;;;;;;5050017;28;20067;-53
2023/01/31 11:26:57;;;;;;;26.02;5.32;;;6.90;99.90;;;;;;5052471;28;20037;-52
2023/01/31 11:29:48;;;;;;;28.42;8.35;;;6.90;99.90;;;;;;5052662;28;20029;-49
2023/01/31 11:32:27;;;;;;;26.67;9.52;;;7.10;99.90;;;;;;5046791;28;20040;-50
2023/01/31 11:35:03;;;;;;;27.10;5.65;;;7.00;99.90;;;;;;5052152;28;20053;-51
2023/01/31 11:37:29;;;;;;;23.55;5.72;;;7.00;99.90;;;;;;5050462;28;20059;-49
2023/01/31 11:39:56;;;;;;;21.88;4.05;;;7.10;99.90;;;;;;5051523;28;20513;-49
2023/01/31 11:42:22;;;;;;;27.30;6.68;;;7.30;99.90;;;;;;5053260;28;20037;-50
2023/01/31 11:45:17;;;;;;;24.85;5.53;;;7.30;99.90;;;;;;5051629;28;20052;-49
2023/01/31 11:47:50;;;;;;;21.63;5.20;;;7.20;99.90;;;;;;5049761;28;20056;-49
2023/01/31 11:50:22;;;;;;;20.35;3.70;;;7.40;99.90;;;;;;5052507;28;20497;-48
2023/01/31 11:52:57;;;;;;;24.30;6.50;;;7.30;99.90;;;;;;5046920;28;20455;-49
2023/01/31 11:55:23;;;;;;;22.52;6.90;;;7.30;99.90;;;;;;5043947;28;20041;-53
2023/01/31 11:57:56;;;;;;;18.77;4.13;;;7.40;99.90;;;;;;5048604;28;20048;-51
2023/01/31 12:00:26;;;;;;;25.08;4.15;;;7.40;99.90;;;;;;5044466;28;20075;-52
2023/01/31 12:03:07;;;;;;;21.15;4.50;;;7.40;99.90;;;;;;5046457;28;20041;-52
2023/01/31 12:05:48;;;;;;;23.92;4.45;;;7.40;99.90;;;;;;5048872;28;20045;-53
2023/01/31 12:08:38;;;;;;;18.65;3.90;;;7.60;99.90;;;;;;5044725;28;20049;-47
2023/01/31 12:11:08;;;;;;;24.33;5.07;;;7.60;99.90;;;;;;5041587;28;20389;-53
2023/01/31 12:13:52;;;;;;;24.45;5.85;;;7.60;99.90;;;;;;5044536;28;20041;-50
2023/01/31 12:16:25;;;;;;;22.60;5.07;;;7.60;99.90;;;;;;5045800;28;20478;-50
2023/01/31 12:19:17;;;;;;;34.20;11.20;;;7.60;99.90;;;;;;5049648;28;20041;-52
2023/01/31 12:22:09;;;;;;;22.85;4.30;;;7.70;99.90;;;;;;5050420;28;20044;-50
2023/01/31 12:24:53;;;;;;;15.80;3.10;;;7.70;99.90;;;;;;5052170;28;20459;-51
2023/01/31 12:27:48;;;;;;;18.27;3.40;;;7.80;99.90;;;;;;5052171;28;20037;-51
2023/01/31 12:30:49;;;;;;;15.90;3.28;;;8.20;99.90;;;;;;5049806;28;20107;-51
2023/01/31 12:33:52;;;;;;;16.30;3.35;;;8.40;99.90;;;;;;5051030;28;20037;-51
2023/01/31 12:36:38;;;;;;;21.27;4.07;;;8.80;99.90;;;;;;5011226;28;20159;-51
2023/01/31 12:39:11;;;;;;;27.38;4.65;;;8.80;99.90;;;;;;5010655;28;20053;-50
2023/01/31 12:41:48;;;;;;;18.40;4.63;;;8.80;99.90;;;;;;5011918;28;20046;-50
2023/01/31 12:44:33;;;;;;;23.38;4.57;;;8.70;99.90;;;;;;5011518;28;20037;-51
2023/01/31 12:47:17;;;;;;;;;;;8.80;99.90;;;;;;5012125;28;20049;-50
2023/01/31 12:50:07;;;;;;;20.40;4.72;;;8.60;99.90;;;;;;5009920;28;19917;-47
2023/01/31 12:52:45;;;;;;;18.55;4.55;;;8.70;99.90;;;;;;5012126;28;20069;-48
2023/01/31 12:55:35;;;;;;;15.63;3.88;;;8.80;99.90;;;;;;5011547;28;20042;-49
2023/01/31 12:58:32;;;;;;;19.65;4.18;;;8.90;99.90;;;;;;5011934;28;20375;-52
2023/01/31 13:01:07;;;;;;;12.73;3.88;;;9.00;99.90;;;;;;5011592;28;20132;-47
2023/01/31 13:03:46;;;;;;;17.83;3.58;;;9.20;99.90;;;;;;5011666;28;20038;-50
2023/01/31 13:06:41;;;;;;;20.80;3.65;;;9.40;99.90;;;;;;5009793;28;20041;-51
2023/01/31 13:09:17;;;;;;;15.75;3.45;;;9.60;99.90;;;;;;5011424;28;20046;-50
2023/01/31 13:12:01;;;;;;;16.65;3.00;;;9.70;99.90;;;;;;5011641;28;20084;-50
2023/01/31 13:14:30;;;;;;;15.50;3.28;;;9.80;99.90;;;;;;5010174;28;20041;-50